Página principal
METAR-TAF:

METAR-TAF

Aeroportos :

Aniak, Alasca, Estados Unidos

latitude: 61-34-53N, longitude: 159-32-34W, altura: 27 m

Observação actual do tempo

O boletim foi feito há 1 hora e 57 minutos, às 07:56 UTC
Vento calmo
Temperatura 14°C
Humidade 67%
Pressão 1024 hPa
Visibilidade: 16.1 km
Céu limpo

METAR: PANI 150756Z AUTO 00000KT 10SM CLR 14/08 A3024 RMK AO2 SLPNO T01390083 $

Hora: 01:53 (09:53 UTC)


TAF: em falta

Observações e previsões do tempo de mais de 4000 aeroportos (mensagens METAR e TAF).

As estações disponíveis são os pontos amarelos e vermelhos sobre o mapa.

Mova o rato sobre o mapa para ver o nome da estação.

Depois clique no ponto para visualizar as observações e previsões meteorológicas.

Para alterar o mapa : clique nos botões verdes com uma cruz preta para aumentar o zoom; no botão verde com uma pitada de zoom; ou nas setas verdes para mapas adjacentes.


METAR-TAF: